createdAt,value
2018-08-30T00:00:22.656Z,17.60
2018-08-30T00:02:51.768Z,17.60
2018-08-30T00:05:20.620Z,17.60
2018-08-30T00:07:49.035Z,17.70
2018-08-30T00:10:22.674Z,17.60
2018-08-30T00:12:52.782Z,17.60
2018-08-30T00:15:36.752Z,17.50
2018-08-30T00:18:11.862Z,17.50
2018-08-30T00:20:40.329Z,17.50
2018-08-30T00:23:08.973Z,17.50
2018-08-30T00:25:37.417Z,17.40
2018-08-30T00:28:05.848Z,17.40
2018-08-30T00:30:40.663Z,17.60
2018-08-30T00:33:13.293Z,17.50
2018-08-30T00:35:50.692Z,17.40
2018-08-30T00:38:22.106Z,17.70
2018-08-30T00:40:58.448Z,17.50
2018-08-30T00:46:00.571Z,17.80
2018-08-30T00:48:30.665Z,17.50
2018-08-30T00:51:00.206Z,17.50
2018-08-30T00:53:30.613Z,17.40
2018-08-30T00:56:08.772Z,17.40
2018-08-30T00:58:37.181Z,17.30
2018-08-30T01:01:08.538Z,17.50
2018-08-30T01:03:45.346Z,17.40
2018-08-30T01:06:13.774Z,17.40
2018-08-30T01:08:47.809Z,17.50
2018-08-30T01:11:16.851Z,17.90
2018-08-30T01:13:45.265Z,17.60
2018-08-30T01:16:13.674Z,17.60
2018-08-30T01:18:42.082Z,17.60
2018-08-30T01:21:11.044Z,17.40
2018-08-30T01:23:39.518Z,17.40
2018-08-30T01:26:08.035Z,17.30
2018-08-30T01:28:37.093Z,17.30
2018-08-30T01:31:16.732Z,17.20
2018-08-30T01:33:56.170Z,17.30
2018-08-30T01:36:26.127Z,17.50
2018-08-30T01:38:55.805Z,17.60
2018-08-30T01:41:35.408Z,17.50
2018-08-30T01:44:14.093Z,17.50
2018-08-30T01:46:53.691Z,17.60
2018-08-30T01:49:27.060Z,17.70
2018-08-30T01:52:10.820Z,17.40
2018-08-30T01:54:45.422Z,17.60
2018-08-30T01:57:13.869Z,17.50
2018-08-30T02:02:23.968Z,17.50
2018-08-30T02:04:53.859Z,17.50
2018-08-30T02:07:32.855Z,17.50
2018-08-30T02:10:03.063Z,17.40
2018-08-30T02:12:42.095Z,17.40
2018-08-30T02:15:10.529Z,17.40
2018-08-30T02:17:51.497Z,17.30
2018-08-30T02:20:30.827Z,17.30
2018-08-30T02:23:00.507Z,17.30
2018-08-30T02:25:30.623Z,17.30
2018-08-30T02:28:12.992Z,17.30
2018-08-30T02:30:48.961Z,17.30
2018-08-30T02:33:19.644Z,17.20
2018-08-30T02:35:58.837Z,17.10
2018-08-30T02:38:36.991Z,17.00
2018-08-30T02:41:08.292Z,17.00
2018-08-30T02:43:46.691Z,17.00
2018-08-30T02:46:26.837Z,17.00
2018-08-30T02:48:57.457Z,17.00
2018-08-30T02:51:34.530Z,17.00
2018-08-30T02:54:06.884Z,17.00
2018-08-30T02:56:44.411Z,16.90
2018-08-30T03:01:54.829Z,17.00
2018-08-30T03:04:33.378Z,16.90
2018-08-30T03:07:13.815Z,16.90
2018-08-30T03:09:53.673Z,16.90
2018-08-30T03:12:31.646Z,16.90
2018-08-30T03:15:11.442Z,16.90
2018-08-30T03:17:39.852Z,16.90
2018-08-30T03:20:10.066Z,16.90
2018-08-30T03:22:39.956Z,16.90
2018-08-30T03:25:08.474Z,16.90
2018-08-30T03:27:46.944Z,16.90
2018-08-30T03:30:15.392Z,16.90
2018-08-30T03:32:57.368Z,17.00
2018-08-30T03:35:37.309Z,16.90
2018-08-30T03:38:14.000Z,17.00
2018-08-30T03:40:53.292Z,16.90
2018-08-30T03:43:23.517Z,16.90
2018-08-30T03:45:51.938Z,17.00
2018-08-30T03:48:22.504Z,17.00
2018-08-30T03:50:52.726Z,17.00
2018-08-30T03:53:31.724Z,17.00
2018-08-30T03:56:01.544Z,17.10
2018-08-30T03:58:29.966Z,16.90
2018-08-30T04:01:00.556Z,16.90
2018-08-30T04:03:37.524Z,17.20
2018-08-30T04:06:05.960Z,16.80
2018-08-30T04:08:34.374Z,16.80
2018-08-30T04:11:02.770Z,16.70
2018-08-30T04:13:31.756Z,16.80
2018-08-30T04:16:00.218Z,16.80
2018-08-30T04:18:28.765Z,16.90
2018-08-30T04:20:59.235Z,16.80
2018-08-30T04:23:27.808Z,16.90
2018-08-30T04:25:58.026Z,17.10
2018-08-30T04:28:36.503Z,17.30
2018-08-30T04:31:06.338Z,17.10
2018-08-30T04:33:34.718Z,17.10
2018-08-30T04:36:03.234Z,17.30
2018-08-30T04:38:37.434Z,17.20
2018-08-30T04:41:16.142Z,17.00
2018-08-30T04:43:45.693Z,17.20
2018-08-30T04:46:14.117Z,17.30
2018-08-30T04:48:42.634Z,17.30
2018-08-30T04:51:16.596Z,17.30
2018-08-30T04:53:54.386Z,17.40
2018-08-30T04:56:22.786Z,17.30
2018-08-30T04:58:52.538Z,17.30
2018-08-30T05:01:24.380Z,17.30
2018-08-30T05:03:54.962Z,17.40
2018-08-30T05:06:24.569Z,17.50
2018-08-30T05:09:01.752Z,17.50
2018-08-30T05:11:33.118Z,17.50
2018-08-30T05:14:01.486Z,17.50
2018-08-30T05:16:44.193Z,17.60
2018-08-30T05:19:21.403Z,17.60
2018-08-30T05:21:52.428Z,17.70
2018-08-30T05:24:22.351Z,17.70
2018-08-30T05:26:55.559Z,17.60
2018-08-30T05:29:31.735Z,17.70
2018-08-30T05:32:07.179Z,17.60
2018-08-30T05:34:42.349Z,17.70
2018-08-30T05:37:20.921Z,17.80
2018-08-30T05:39:51.039Z,17.80
2018-08-30T05:42:33.349Z,17.90
2018-08-30T05:45:02.334Z,17.90
2018-08-30T05:47:30.757Z,18.00
2018-08-30T05:49:59.874Z,18.10
2018-08-30T05:52:28.385Z,18.10
2018-08-30T05:54:57.363Z,18.10
2018-08-30T05:57:25.765Z,18.20
2018-08-30T05:59:59.195Z,18.20
2018-08-30T06:02:29.684Z,17.90
2018-08-30T06:05:07.358Z,17.90
2018-08-30T06:07:35.894Z,18.00
2018-08-30T06:10:18.757Z,18.00
2018-08-30T06:12:47.109Z,18.00
2018-08-30T06:15:15.673Z,17.90
2018-08-30T06:17:47.498Z,17.90
2018-08-30T06:20:15.903Z,17.90
2018-08-30T06:22:54.369Z,17.80
2018-08-30T06:25:27.937Z,17.70
2018-08-30T06:28:04.629Z,18.20
2018-08-30T06:30:33.067Z,17.70
2018-08-30T06:33:01.466Z,17.70
2018-08-30T06:35:35.845Z,17.70
2018-08-30T06:38:05.996Z,17.60
2018-08-30T06:40:34.407Z,17.70
2018-08-30T06:43:08.583Z,17.60
2018-08-30T06:45:36.977Z,17.60
2018-08-30T06:48:05.405Z,17.80
2018-08-30T06:50:33.791Z,17.60
2018-08-30T06:53:14.043Z,17.70
2018-08-30T06:55:52.822Z,17.70
2018-08-30T06:58:28.202Z,18.10
2018-08-30T07:00:56.648Z,17.70
2018-08-30T07:03:31.869Z,17.70
2018-08-30T07:06:08.700Z,17.70
2018-08-30T07:08:37.160Z,17.80
2018-08-30T07:11:09.255Z,18.00
2018-08-30T07:13:37.702Z,17.90
2018-08-30T07:16:10.502Z,18.00
2018-08-30T07:18:48.534Z,18.00
2018-08-30T07:21:16.959Z,17.90
2018-08-30T07:23:48.278Z,17.90
2018-08-30T07:28:49.008Z,17.60
2018-08-30T07:31:17.448Z,17.60
2018-08-30T07:33:55.414Z,17.70
2018-08-30T07:36:24.043Z,17.60
2018-08-30T07:38:52.474Z,17.60
2018-08-30T07:41:20.922Z,17.60
2018-08-30T07:43:54.866Z,17.50
2018-08-30T07:46:25.983Z,17.40
2018-08-30T07:49:03.738Z,17.50
2018-08-30T07:51:34.428Z,17.50
2018-08-30T07:54:02.820Z,17.80
2018-08-30T07:56:33.466Z,17.70
2018-08-30T07:59:01.882Z,17.70
2018-08-30T08:01:31.069Z,17.70
2018-08-30T08:03:59.464Z,17.70
2018-08-30T08:06:31.282Z,17.70
2018-08-30T08:09:04.786Z,17.70
2018-08-30T08:11:33.230Z,17.40
2018-08-30T08:14:01.610Z,17.50
2018-08-30T08:16:38.084Z,17.70
2018-08-30T08:19:10.245Z,17.70
2018-08-30T08:21:38.707Z,17.70
2018-08-30T08:24:07.081Z,17.60
2018-08-30T08:26:36.454Z,17.60
2018-08-30T08:29:08.243Z,17.70
2018-08-30T08:31:36.856Z,17.70
2018-08-30T08:34:05.286Z,17.70
2018-08-30T08:36:34.282Z,17.80
2018-08-30T08:39:11.402Z,17.90
2018-08-30T08:41:39.893Z,18.00
2018-08-30T08:44:08.334Z,18.00
2018-08-30T08:46:41.346Z,18.10
2018-08-30T08:51:42.623Z,18.10
2018-08-30T08:54:11.183Z,18.00
2018-08-30T08:56:43.202Z,18.10
2018-08-30T08:59:11.693Z,18.20
2018-08-30T09:01:40.403Z,18.30
2018-08-30T09:04:09.773Z,18.20
2018-08-30T09:06:48.681Z,18.20
2018-08-30T09:09:17.095Z,18.20
2018-08-30T09:14:19.918Z,18.30
2018-08-30T09:16:48.329Z,18.40
2018-08-30T09:19:16.746Z,18.20
2018-08-30T09:21:54.485Z,18.40
2018-08-30T09:24:23.319Z,18.40
2018-08-30T09:26:51.827Z,18.10
2018-08-30T09:29:20.238Z,18.40
2018-08-30T09:31:55.924Z,18.30
2018-08-30T09:34:34.220Z,18.20
2018-08-30T09:37:04.113Z,18.20
2018-08-30T09:39:37.339Z,18.10
2018-08-30T09:42:05.760Z,18.40
2018-08-30T09:44:34.258Z,18.10
2018-08-30T09:47:02.951Z,18.10
2018-08-30T09:49:40.445Z,18.00
2018-08-30T09:52:11.256Z,18.00
2018-08-30T09:54:39.697Z,17.90
2018-08-30T09:57:08.243Z,17.70
2018-08-30T09:59:39.842Z,17.80
2018-08-30T10:02:18.289Z,17.70
2018-08-30T10:04:48.727Z,17.60
2018-08-30T10:07:17.186Z,17.60
2018-08-30T10:09:45.619Z,17.50
2018-08-30T10:12:17.607Z,17.40
2018-08-30T10:14:46.024Z,17.40
2018-08-30T10:19:50.960Z,17.20
2018-08-30T10:22:19.399Z,17.20
2018-08-30T10:24:47.818Z,17.20
2018-08-30T10:27:24.474Z,17.20
2018-08-30T10:29:56.015Z,17.30
2018-08-30T10:32:24.421Z,16.90
2018-08-30T10:37:25.895Z,17.20
2018-08-30T10:40:01.759Z,17.20
2018-08-30T10:42:30.545Z,17.10
2018-08-30T10:44:58.989Z,17.00
2018-08-30T10:47:27.445Z,17.00
2018-08-30T10:49:59.795Z,17.00
2018-08-30T10:52:28.153Z,17.10
2018-08-30T10:54:56.563Z,17.10
2018-08-30T10:57:24.977Z,17.20
2018-08-30T10:59:53.579Z,17.40
2018-08-30T11:02:28.520Z,17.50
2018-08-30T11:07:49.289Z,17.60
2018-08-30T11:10:27.012Z,17.70
2018-08-30T11:15:32.360Z,17.60
2018-08-30T11:18:00.787Z,17.60
2018-08-30T11:20:29.473Z,17.50
2018-08-30T11:22:57.879Z,17.50
2018-08-30T11:25:34.404Z,17.50
2018-08-30T11:28:02.842Z,17.40
2018-08-30T11:30:31.311Z,17.50
2018-08-30T11:33:03.088Z,17.30
2018-08-30T11:35:33.820Z,17.30
2018-08-30T11:38:02.382Z,17.40
2018-08-30T11:40:30.829Z,17.30
2018-08-30T11:43:03.838Z,17.40
2018-08-30T11:45:46.512Z,17.20
2018-08-30T11:48:22.527Z,17.40
2018-08-30T11:50:55.753Z,17.10
2018-08-30T11:53:24.176Z,17.50
2018-08-30T11:58:23.219Z,17.70
2018-08-30T12:01:00.828Z,17.80
2018-08-30T12:03:31.470Z,17.80
2018-08-30T12:06:01.249Z,17.90
2018-08-30T12:08:29.770Z,17.90
2018-08-30T12:10:58.792Z,18.00
2018-08-30T12:13:27.114Z,18.00
2018-08-30T12:15:55.544Z,18.70
2018-08-30T12:18:23.970Z,18.10
2018-08-30T12:20:52.432Z,18.10
2018-08-30T12:23:20.830Z,18.00
2018-08-30T12:25:49.302Z,18.10
2018-08-30T12:28:28.025Z,18.10
2018-08-30T12:31:05.376Z,17.90
2018-08-30T12:33:33.868Z,17.80
2018-08-30T12:36:02.420Z,17.80
2018-08-30T12:38:30.790Z,17.90
2018-08-30T12:41:05.060Z,17.70
2018-08-30T12:43:42.857Z,17.80
2018-08-30T12:46:11.279Z,17.60
2018-08-30T12:48:39.674Z,17.70
2018-08-30T12:51:08.220Z,17.60
2018-08-30T12:53:43.309Z,17.40
2018-08-30T12:56:16.812Z,17.30
2018-08-30T12:58:46.234Z,17.50
2018-08-30T13:01:14.718Z,17.30
2018-08-30T13:03:43.230Z,17.30
2018-08-30T13:06:19.021Z,17.30
2018-08-30T13:11:15.678Z,17.00
2018-08-30T13:13:44.166Z,17.00
2018-08-30T13:16:21.709Z,17.30
2018-08-30T13:18:58.448Z,17.20
2018-08-30T13:21:26.900Z,17.30
2018-08-30T13:26:23.764Z,17.30
2018-08-30T13:28:58.433Z,17.30
2018-08-30T13:31:28.216Z,17.30
2018-08-30T13:33:57.454Z,17.40
2018-08-30T13:36:25.632Z,17.40
2018-08-30T13:39:00.001Z,17.70
2018-08-30T13:41:37.555Z,17.50
2018-08-30T13:44:14.497Z,17.50
2018-08-30T13:46:43.269Z,17.50
2018-08-30T13:49:12.255Z,17.70
2018-08-30T13:51:40.882Z,17.60
2018-08-30T13:54:16.101Z,17.60
2018-08-30T13:56:47.019Z,17.60
2018-08-30T13:59:15.405Z,17.60
2018-08-30T14:01:44.149Z,17.60
2018-08-30T14:04:17.544Z,17.60
2018-08-30T14:06:53.343Z,17.50
2018-08-30T14:09:21.910Z,17.70
2018-08-30T14:11:50.676Z,17.80
2018-08-30T14:14:19.590Z,17.80
2018-08-30T14:16:52.939Z,17.80
2018-08-30T14:21:56.022Z,17.80
2018-08-30T14:24:24.434Z,17.80
2018-08-30T14:26:53.269Z,18.00
2018-08-30T14:29:28.358Z,17.90
2018-08-30T14:31:56.874Z,18.00
2018-08-30T14:36:53.425Z,18.20
2018-08-30T14:39:31.633Z,18.00
2018-08-30T14:42:05.581Z,18.10
2018-08-30T14:44:34.016Z,18.20
2018-08-30T14:47:02.485Z,18.10
2018-08-30T14:49:31.100Z,18.10
2018-08-30T14:52:02.246Z,18.00
2018-08-30T14:54:30.768Z,18.20
2018-08-30T14:56:59.138Z,18.30
2018-08-30T14:59:30.682Z,18.30
2018-08-30T15:02:00.258Z,18.30
2018-08-30T15:04:28.848Z,18.50
2018-08-30T15:06:57.283Z,18.40
2018-08-30T15:09:29.052Z,18.40
2018-08-30T15:12:01.039Z,18.50
2018-08-30T15:14:30.514Z,18.40
2018-08-30T15:16:58.950Z,18.40
2018-08-30T15:19:29.864Z,18.60
2018-08-30T15:22:06.283Z,18.30
2018-08-30T15:24:34.626Z,18.50
2018-08-30T15:27:03.224Z,18.50
2018-08-30T15:29:31.621Z,17.00
2018-08-30T15:32:07.083Z,18.20
2018-08-30T15:37:03.831Z,18.10
2018-08-30T15:39:32.259Z,18.10
2018-08-30T15:42:07.376Z,17.80
2018-08-30T15:44:35.775Z,18.00
2018-08-30T15:47:04.338Z,17.80
2018-08-30T15:49:33.138Z,17.90
2018-08-30T15:52:11.427Z,17.70
2018-08-30T15:54:42.285Z,18.00
2018-08-30T15:57:10.829Z,17.90
2018-08-30T15:59:39.318Z,18.00
2018-08-30T16:04:39.880Z,18.00
2018-08-30T16:07:08.670Z,17.90
2018-08-30T16:09:37.346Z,17.80
2018-08-30T16:12:11.772Z,18.00
2018-08-30T16:14:40.333Z,17.90
2018-08-30T16:17:08.975Z,17.80
2018-08-30T16:19:37.480Z,17.50
2018-08-30T16:22:06.056Z,17.70
2018-08-30T16:24:47.506Z,17.80
2018-08-30T16:27:24.528Z,17.70
2018-08-30T16:30:01.393Z,17.80
2018-08-30T16:32:29.965Z,17.50
2018-08-30T16:34:58.444Z,17.60
2018-08-30T16:37:27.093Z,17.40
2018-08-30T16:40:04.473Z,17.40
2018-08-30T16:42:45.970Z,17.40
2018-08-30T16:45:22.849Z,17.20
2018-08-30T16:47:51.316Z,17.40
2018-08-30T16:50:19.852Z,17.60
2018-08-30T16:52:48.441Z,17.50
2018-08-30T16:55:26.751Z,17.40
2018-08-30T16:58:02.651Z,17.50
2018-08-30T17:00:31.238Z,17.40
2018-08-30T17:03:00.152Z,17.40
2018-08-30T17:05:29.056Z,17.40
2018-08-30T17:08:06.767Z,17.50
2018-08-30T17:10:42.593Z,17.50
2018-08-30T17:13:11.333Z,17.90
2018-08-30T17:15:40.023Z,17.70
2018-08-30T17:18:08.621Z,17.70
2018-08-30T17:20:45.679Z,17.60
2018-08-30T17:23:14.224Z,17.80
2018-08-30T17:25:43.492Z,17.80
2018-08-30T17:28:12.649Z,17.60
2018-08-30T17:30:48.893Z,17.60
2018-08-30T17:33:17.452Z,17.60
2018-08-30T17:35:45.922Z,17.30
2018-08-30T17:38:20.525Z,17.70
2018-08-30T17:40:49.056Z,17.60
2018-08-30T17:43:23.721Z,17.40
2018-08-30T17:46:01.849Z,17.60
2018-08-30T17:48:30.717Z,17.50
2018-08-30T17:51:04.297Z,17.90
2018-08-30T17:53:41.976Z,17.90
2018-08-30T17:56:11.673Z,17.20
2018-08-30T17:58:40.261Z,17.70
2018-08-30T18:01:09.493Z,17.90
2018-08-30T18:03:38.650Z,17.60
2018-08-30T18:08:42.243Z,17.60
2018-08-30T18:11:12.162Z,17.50
2018-08-30T18:13:40.759Z,17.50
2018-08-30T18:18:42.126Z,17.30
2018-08-30T18:21:10.891Z,17.10
2018-08-30T18:23:40.234Z,17.70
2018-08-30T18:26:19.161Z,17.50
2018-08-30T18:28:56.379Z,17.70
2018-08-30T18:31:27.072Z,17.30
2018-08-30T18:33:56.727Z,17.40
2018-08-30T18:36:33.218Z,17.10
2018-08-30T18:39:11.704Z,17.30
2018-08-30T18:41:46.867Z,17.60
2018-08-30T18:44:15.966Z,17.30
2018-08-30T18:46:44.719Z,17.30
2018-08-30T18:49:23.244Z,17.30
2018-08-30T18:52:02.886Z,17.60
2018-08-30T18:54:34.761Z,17.50
2018-08-30T18:57:03.446Z,17.20
2018-08-30T18:59:32.592Z,17.70
2018-08-30T19:02:06.553Z,17.20
2018-08-30T19:04:45.856Z,17.30
2018-08-30T19:07:24.428Z,17.10
2018-08-30T19:09:55.751Z,17.10
2018-08-30T19:12:24.908Z,17.20
2018-08-30T19:14:53.568Z,17.70
2018-08-30T19:17:32.480Z,17.40
2018-08-30T19:20:03.988Z,17.10
2018-08-30T19:22:35.591Z,17.30
2018-08-30T19:25:10.020Z,17.30
2018-08-30T19:27:39.664Z,17.20
2018-08-30T19:30:23.326Z,17.00
2018-08-30T19:35:25.477Z,17.10
2018-08-30T19:42:56.787Z,17.00
2018-08-30T19:45:25.497Z,16.90
2018-08-30T19:47:55.016Z,16.80
2018-08-30T19:52:52.708Z,16.70
2018-08-30T19:55:21.903Z,16.20
2018-08-30T19:57:50.583Z,16.60
2018-08-30T20:00:22.515Z,16.80
2018-08-30T20:02:53.244Z,16.70
2018-08-30T20:05:21.853Z,16.40
2018-08-30T20:07:51.204Z,16.70
2018-08-30T20:10:19.755Z,16.70
2018-08-30T20:15:16.918Z,16.40
2018-08-30T20:17:45.556Z,16.20
2018-08-30T20:20:14.068Z,16.30
2018-08-30T20:22:44.918Z,16.60
2018-08-30T20:25:14.025Z,16.50
2018-08-30T20:27:42.593Z,16.40
2018-08-30T20:30:11.142Z,16.60
2018-08-30T20:32:40.678Z,16.50
2018-08-30T20:35:09.316Z,16.30
2018-08-30T20:37:38.475Z,15.90
2018-08-30T20:40:07.814Z,15.90
2018-08-30T20:42:36.375Z,16.00
2018-08-30T20:45:05.296Z,16.20
2018-08-30T20:47:33.825Z,16.10
2018-08-30T20:50:02.781Z,16.40
2018-08-30T20:52:31.420Z,16.20
2018-08-30T20:55:00.578Z,16.20
2018-08-30T20:57:29.194Z,15.60
2018-08-30T20:59:58.121Z,15.90
2018-08-30T21:02:26.984Z,15.30
2018-08-30T21:04:55.651Z,16.20
2018-08-30T21:07:24.645Z,16.20
2018-08-30T21:09:53.308Z,15.70
2018-08-30T21:14:50.117Z,16.00
2018-08-30T21:17:19.306Z,15.90
2018-08-30T21:19:48.207Z,15.50
2018-08-30T21:22:16.812Z,15.60
2018-08-30T21:24:45.419Z,15.60
2018-08-30T21:27:14.610Z,15.60
2018-08-30T21:29:43.217Z,15.40
2018-08-30T21:32:12.470Z,15.40
2018-08-30T21:34:40.956Z,15.40
2018-08-30T21:37:09.421Z,14.90
2018-08-30T21:39:37.906Z,15.50
2018-08-30T21:42:07.365Z,15.40
2018-08-30T21:44:35.808Z,15.30
2018-08-30T21:47:04.278Z,15.20
2018-08-30T21:49:32.731Z,15.10
2018-08-30T21:52:01.239Z,15.20
2018-08-30T21:54:29.611Z,15.10
2018-08-30T21:56:58.091Z,15.00
2018-08-30T21:59:26.562Z,14.90
2018-08-30T22:01:55.029Z,15.00
2018-08-30T22:04:23.471Z,14.90
2018-08-30T22:06:51.914Z,15.00
2018-08-30T22:09:20.414Z,14.90
2018-08-30T22:11:48.847Z,14.80
2018-08-30T22:14:17.467Z,14.80
2018-08-30T22:16:46.934Z,14.80
2018-08-30T22:19:15.405Z,14.80
2018-08-30T22:21:43.919Z,14.90
2018-08-30T22:26:40.567Z,14.80
2018-08-30T22:29:08.971Z,14.80
2018-08-30T22:31:37.395Z,14.70
2018-08-30T22:34:05.853Z,14.70
2018-08-30T22:39:02.839Z,15.00
2018-08-30T22:41:31.361Z,14.90
2018-08-30T22:43:59.767Z,14.80
2018-08-30T22:46:28.175Z,14.80
2018-08-30T22:48:56.611Z,14.70
2018-08-30T22:51:25.169Z,14.70
2018-08-30T22:53:53.595Z,14.50
2018-08-30T22:56:22.051Z,14.50
2018-08-30T22:58:50.475Z,14.50
2018-08-30T23:01:19.121Z,14.50
2018-08-30T23:03:47.565Z,14.50
2018-08-30T23:06:15.965Z,14.50
2018-08-30T23:08:44.369Z,14.50
2018-08-30T23:11:12.795Z,14.40
2018-08-30T23:13:41.269Z,14.50
2018-08-30T23:16:09.731Z,14.30
2018-08-30T23:21:06.395Z,14.20
2018-08-30T23:23:34.788Z,14.30
2018-08-30T23:26:03.273Z,14.00
2018-08-30T23:28:31.693Z,14.00
2018-08-30T23:31:00.161Z,13.60
2018-08-30T23:33:28.592Z,14.20
2018-08-30T23:35:57.025Z,13.90
2018-08-30T23:38:25.432Z,13.60
2018-08-30T23:40:53.879Z,13.90
2018-08-30T23:43:22.407Z,13.90
2018-08-30T23:45:50.833Z,13.90
2018-08-30T23:48:19.279Z,13.70
2018-08-30T23:50:47.695Z,13.70
2018-08-30T23:53:16.146Z,13.60
2018-08-30T23:55:44.607Z,13.50
2018-08-30T23:58:24.307Z,13.40
